sensor_id;sensor_type;location;lat;lon;timestamp;temperature;humidity
20566;DHT22;10441;50.884;12.064;2023-02-02T00:02:09;3.10;99.90
20566;DHT22;10441;50.884;12.064;2023-02-02T00:04:35;3.00;99.90
20566;DHT22;10441;50.884;12.064;2023-02-02T00:07:03;3.30;99.90
20566;DHT22;10441;50.884;12.064;2023-02-02T00:09:31;3.20;99.90
20566;DHT22;10441;50.884;12.064;2023-02-02T00:12:08;3.20;99.90
20566;DHT22;10441;50.884;12.064;2023-02-02T00:14:35;3.20;99.90
20566;DHT22;10441;50.884;12.064;2023-02-02T00:17:04;3.30;99.90
20566;DHT22;10441;50.884;12.064;2023-02-02T00:19:31;3.20;99.90
20566;DHT22;10441;50.884;12.064;2023-02-02T00:22:02;3.10;99.90
20566;DHT22;10441;50.884;12.064;2023-02-02T00:24:32;3.30;99.90
20566;DHT22;10441;50.884;12.064;2023-02-02T00:27:00;3.20;99.90
20566;DHT22;10441;50.884;12.064;2023-02-02T00:29:33;3.20;99.90
20566;DHT22;10441;50.884;12.064;2023-02-02T00:32:02;3.30;99.90
20566;DHT22;10441;50.884;12.064;2023-02-02T00:34:32;3.30;99.90
20566;DHT22;10441;50.884;12.064;2023-02-02T00:37:00;3.30;99.90
20566;DHT22;10441;50.884;12.064;2023-02-02T00:39:28;3.40;99.90
20566;DHT22;10441;50.884;12.064;2023-02-02T00:41:55;3.40;99.90
20566;DHT22;10441;50.884;12.064;2023-02-02T00:44:23;3.80;99.90
20566;DHT22;10441;50.884;12.064;2023-02-02T00:47:10;3.80;99.90
20566;DHT22;10441;50.884;12.064;2023-02-02T00:49:38;3.80;99.90
20566;DHT22;10441;50.884;12.064;2023-02-02T00:52:05;3.70;99.90
20566;DHT22;10441;50.884;12.064;2023-02-02T00:54:33;3.70;99.90
20566;DHT22;10441;50.884;12.064;2023-02-02T00:57:01;3.90;99.90
20566;DHT22;10441;50.884;12.064;2023-02-02T00:59:30;3.90;99.90
20566;DHT22;10441;50.884;12.064;2023-02-02T01:01:58;3.90;99.90
20566;DHT22;10441;50.884;12.064;2023-02-02T01:04:32;4.10;99.90
20566;DHT22;10441;50.884;12.064;2023-02-02T01:07:02;4.20;99.90
20566;DHT22;10441;50.884;12.064;2023-02-02T01:09:33;4.10;99.90
20566;DHT22;10441;50.884;12.064;2023-02-02T01:12:00;4.00;99.90
20566;DHT22;10441;50.884;12.064;2023-02-02T01:14:28;4.00;99.90
20566;DHT22;10441;50.884;12.064;2023-02-02T01:16:56;4.00;99.90
20566;DHT22;10441;50.884;12.064;2023-02-02T01:19:24;3.80;99.90
20566;DHT22;10441;50.884;12.064;2023-02-02T01:21:54;3.90;99.90
20566;DHT22;10441;50.884;12.064;2023-02-02T01:24:22;3.80;99.90
20566;DHT22;10441;50.884;12.064;2023-02-02T01:26:50;3.80;99.90
20566;DHT22;10441;50.884;12.064;2023-02-02T01:29:17;3.90;99.90
20566;DHT22;10441;50.884;12.064;2023-02-02T01:31:47;3.80;99.90
20566;DHT22;10441;50.884;12.064;2023-02-02T01:34:15;3.80;99.90
20566;DHT22;10441;50.884;12.064;2023-02-02T01:36:43;3.80;99.90
20566;DHT22;10441;50.884;12.064;2023-02-02T01:39:11;3.80;99.90
20566;DHT22;10441;50.884;12.064;2023-02-02T01:41:40;3.90;99.90
20566;DHT22;10441;50.884;12.064;2023-02-02T01:46:51;3.70;99.90
20566;DHT22;10441;50.884;12.064;2023-02-02T01:49:19;3.60;99.90
20566;DHT22;10441;50.884;12.064;2023-02-02T01:51:49;3.30;99.90
20566;DHT22;10441;50.884;12.064;2023-02-02T01:54:20;3.40;99.90
20566;DHT22;10441;50.884;12.064;2023-02-02T01:56:49;3.60;99.90
20566;DHT22;10441;50.884;12.064;2023-02-02T01:59:19;3.70;99.90
20566;DHT22;10441;50.884;12.064;2023-02-02T02:01:47;3.30;99.90
20566;DHT22;10441;50.884;12.064;2023-02-02T02:04:15;3.40;99.90
20566;DHT22;10441;50.884;12.064;2023-02-02T02:06:42;3.30;99.90
20566;DHT22;10441;50.884;12.064;2023-02-02T02:09:11;3.50;99.90
20566;DHT22;10441;50.884;12.064;2023-02-02T02:11:40;3.50;99.90
20566;DHT22;10441;50.884;12.064;2023-02-02T02:14:08;3.50;99.90
20566;DHT22;10441;50.884;12.064;2023-02-02T02:16:59;3.40;99.90
20566;DHT22;10441;50.884;12.064;2023-02-02T02:19:38;3.30;99.90
20566;DHT22;10441;50.884;12.064;2023-02-02T02:22:29;3.30;99.90
20566;DHT22;10441;50.884;12.064;2023-02-02T02:28:40;3.30;99.90
20566;DHT22;10441;50.884;12.064;2023-02-02T02:33:58;3.30;99.90
20566;DHT22;10441;50.884;12.064;2023-02-02T02:36:34;3.40;99.90
20566;DHT22;10441;50.884;12.064;2023-02-02T02:39:09;3.00;99.90
20566;DHT22;10441;50.884;12.064;2023-02-02T02:41:40;3.10;99.90
20566;DHT22;10441;50.884;12.064;2023-02-02T02:44:10;3.30;99.90
20566;DHT22;10441;50.884;12.064;2023-02-02T02:46:39;3.40;99.90
20566;DHT22;10441;50.884;12.064;2023-02-02T02:49:10;3.20;99.90
20566;DHT22;10441;50.884;12.064;2023-02-02T02:51:40;3.20;99.90
20566;DHT22;10441;50.884;12.064;2023-02-02T02:54:09;3.30;99.90
20566;DHT22;10441;50.884;12.064;2023-02-02T02:56:43;3.30;99.90
20566;DHT22;10441;50.884;12.064;2023-02-02T02:59:16;3.10;99.90
20566;DHT22;10441;50.884;12.064;2023-02-02T03:01:48;3.20;99.90
20566;DHT22;10441;50.884;12.064;2023-02-02T03:04:20;3.50;99.90
20566;DHT22;10441;50.884;12.064;2023-02-02T03:06:51;3.30;99.90
20566;DHT22;10441;50.884;12.064;2023-02-02T03:09:20;3.40;99.90
20566;DHT22;10441;50.884;12.064;2023-02-02T03:11:49;3.40;99.90
20566;DHT22;10441;50.884;12.064;2023-02-02T03:14:17;3.30;99.90
20566;DHT22;10441;50.884;12.064;2023-02-02T03:16:45;3.30;99.90
20566;DHT22;10441;50.884;12.064;2023-02-02T03:19:13;3.50;99.90
20566;DHT22;10441;50.884;12.064;2023-02-02T03:21:44;3.40;99.90
20566;DHT22;10441;50.884;12.064;2023-02-02T03:24:12;3.40;99.90
20566;DHT22;10441;50.884;12.064;2023-02-02T03:26:39;3.40;99.90
20566;DHT22;10441;50.884;12.064;2023-02-02T03:29:09;3.30;99.90
20566;DHT22;10441;50.884;12.064;2023-02-02T03:31:39;3.30;99.90
20566;DHT22;10441;50.884;12.064;2023-02-02T03:34:10;3.20;99.90
20566;DHT22;10441;50.884;12.064;2023-02-02T03:36:42;3.80;99.90
20566;DHT22;10441;50.884;12.064;2023-02-02T03:39:10;3.50;99.90
20566;DHT22;10441;50.884;12.064;2023-02-02T03:41:38;3.30;99.90
20566;DHT22;10441;50.884;12.064;2023-02-02T03:44:06;3.70;99.90
20566;DHT22;10441;50.884;12.064;2023-02-02T03:46:34;3.50;99.90
20566;DHT22;10441;50.884;12.064;2023-02-02T03:49:03;3.30;99.90
20566;DHT22;10441;50.884;12.064;2023-02-02T03:51:30;3.50;99.90
20566;DHT22;10441;50.884;12.064;2023-02-02T03:54:00;3.60;99.90
20566;DHT22;10441;50.884;12.064;2023-02-02T03:56:28;3.40;99.90
20566;DHT22;10441;50.884;12.064;2023-02-02T03:58:56;3.60;99.90
20566;DHT22;10441;50.884;12.064;2023-02-02T04:01:25;3.60;99.90
20566;DHT22;10441;50.884;12.064;2023-02-02T04:03:53;3.70;99.90
20566;DHT22;10441;50.884;12.064;2023-02-02T04:06:21;3.60;99.90
20566;DHT22;10441;50.884;12.064;2023-02-02T04:08:48;3.60;99.90
20566;DHT22;10441;50.884;12.064;2023-02-02T04:11:17;3.60;99.90
20566;DHT22;10441;50.884;12.064;2023-02-02T04:13:45;3.50;99.90
20566;DHT22;10441;50.884;12.064;2023-02-02T04:16:13;3.60;99.90
20566;DHT22;10441;50.884;12.064;2023-02-02T04:18:40;3.70;99.90
20566;DHT22;10441;50.884;12.064;2023-02-02T04:21:09;3.70;99.90
20566;DHT22;10441;50.884;12.064;2023-02-02T04:23:37;3.80;99.90
20566;DHT22;10441;50.884;12.064;2023-02-02T04:26:05;3.50;99.90
20566;DHT22;10441;50.884;12.064;2023-02-02T04:28:34;3.60;99.90
20566;DHT22;10441;50.884;12.064;2023-02-02T04:31:02;3.50;99.90
20566;DHT22;10441;50.884;12.064;2023-02-02T04:33:33;3.70;99.90
20566;DHT22;10441;50.884;12.064;2023-02-02T04:36:01;3.70;99.90
20566;DHT22;10441;50.884;12.064;2023-02-02T04:38:29;3.60;99.90
20566;DHT22;10441;50.884;12.064;2023-02-02T04:40:57;3.80;99.90
20566;DHT22;10441;50.884;12.064;2023-02-02T04:43:26;3.80;99.90
20566;DHT22;10441;50.884;12.064;2023-02-02T04:45:57;3.80;99.90
20566;DHT22;10441;50.884;12.064;2023-02-02T04:48:24;3.60;99.90
20566;DHT22;10441;50.884;12.064;2023-02-02T04:50:57;3.50;99.90
20566;DHT22;10441;50.884;12.064;2023-02-02T04:53:26;3.50;99.90
20566;DHT22;10441;50.884;12.064;2023-02-02T04:55:54;3.50;99.90
20566;DHT22;10441;50.884;12.064;2023-02-02T04:58:23;3.60;99.90
20566;DHT22;10441;50.884;12.064;2023-02-02T05:00:51;3.50;99.90
20566;DHT22;10441;50.884;12.064;2023-02-02T05:03:20;3.50;99.90
20566;DHT22;10441;50.884;12.064;2023-02-02T05:05:48;3.70;99.90
20566;DHT22;10441;50.884;12.064;2023-02-02T05:08:15;3.70;99.90
20566;DHT22;10441;50.884;12.064;2023-02-02T05:10:47;3.50;99.90
20566;DHT22;10441;50.884;12.064;2023-02-02T05:13:16;3.30;99.90
20566;DHT22;10441;50.884;12.064;2023-02-02T05:15:44;3.30;99.90
20566;DHT22;10441;50.884;12.064;2023-02-02T05:18:11;3.60;99.90
20566;DHT22;10441;50.884;12.064;2023-02-02T05:20:45;3.60;99.90
20566;DHT22;10441;50.884;12.064;2023-02-02T05:23:11;3.40;99.90
20566;DHT22;10441;50.884;12.064;2023-02-02T05:25:40;3.40;99.90
20566;DHT22;10441;50.884;12.064;2023-02-02T05:28:10;3.60;99.90
20566;DHT22;10441;50.884;12.064;2023-02-02T05:30:39;3.60;99.90
20566;DHT22;10441;50.884;12.064;2023-02-02T05:33:06;3.60;99.90
20566;DHT22;10441;50.884;12.064;2023-02-02T05:35:34;3.70;99.90
20566;DHT22;10441;50.884;12.064;2023-02-02T05:38:07;3.60;99.90
20566;DHT22;10441;50.884;12.064;2023-02-02T05:40:35;3.60;99.90
20566;DHT22;10441;50.884;12.064;2023-02-02T05:43:03;3.60;99.90
20566;DHT22;10441;50.884;12.064;2023-02-02T05:45:31;3.40;99.90
20566;DHT22;10441;50.884;12.064;2023-02-02T05:47:59;3.60;99.90
20566;DHT22;10441;50.884;12.064;2023-02-02T05:50:27;3.50;99.90
20566;DHT22;10441;50.884;12.064;2023-02-02T05:52:56;3.40;99.90
20566;DHT22;10441;50.884;12.064;2023-02-02T05:55:25;3.50;99.90
20566;DHT22;10441;50.884;12.064;2023-02-02T05:57:53;3.40;99.90
20566;DHT22;10441;50.884;12.064;2023-02-02T06:00:22;3.40;99.90
20566;DHT22;10441;50.884;12.064;2023-02-02T06:02:50;3.60;99.90
20566;DHT22;10441;50.884;12.064;2023-02-02T06:05:17;3.40;99.90
20566;DHT22;10441;50.884;12.064;2023-02-02T06:07:45;3.30;99.90
20566;DHT22;10441;50.884;12.064;2023-02-02T06:10:13;3.30;99.90
20566;DHT22;10441;50.884;12.064;2023-02-02T06:12:45;3.50;99.90
20566;DHT22;10441;50.884;12.064;2023-02-02T06:15:13;3.40;99.90
20566;DHT22;10441;50.884;12.064;2023-02-02T06:17:40;3.50;99.90
20566;DHT22;10441;50.884;12.064;2023-02-02T06:20:10;3.50;99.90
20566;DHT22;10441;50.884;12.064;2023-02-02T06:22:38;3.60;99.90
20566;DHT22;10441;50.884;12.064;2023-02-02T06:25:07;3.60;99.90
20566;DHT22;10441;50.884;12.064;2023-02-02T06:27:33;3.50;99.90
20566;DHT22;10441;50.884;12.064;2023-02-02T06:30:06;3.40;99.90
20566;DHT22;10441;50.884;12.064;2023-02-02T06:32:36;3.50;99.90
20566;DHT22;10441;50.884;12.064;2023-02-02T06:35:05;3.40;99.90
20566;DHT22;10441;50.884;12.064;2023-02-02T06:37:33;3.60;99.90
20566;DHT22;10441;50.884;12.064;2023-02-02T06:40:01;3.70;99.90
20566;DHT22;10441;50.884;12.064;2023-02-02T06:42:29;3.50;99.90
20566;DHT22;10441;50.884;12.064;2023-02-02T06:44:57;3.60;99.90
20566;DHT22;10441;50.884;12.064;2023-02-02T06:47:27;3.60;99.90
20566;DHT22;10441;50.884;12.064;2023-02-02T06:49:57;3.80;99.90
20566;DHT22;10441;50.884;12.064;2023-02-02T06:52:25;3.70;99.90
20566;DHT22;10441;50.884;12.064;2023-02-02T06:54:53;3.90;99.90
20566;DHT22;10441;50.884;12.064;2023-02-02T06:57:21;3.90;99.90
20566;DHT22;10441;50.884;12.064;2023-02-02T06:59:49;3.60;99.90
20566;DHT22;10441;50.884;12.064;2023-02-02T07:02:17;3.80;99.90
20566;DHT22;10441;50.884;12.064;2023-02-02T07:04:47;4.00;99.90
20566;DHT22;10441;50.884;12.064;2023-02-02T07:07:15;4.00;99.90
20566;DHT22;10441;50.884;12.064;2023-02-02T07:09:42;4.10;99.90
20566;DHT22;10441;50.884;12.064;2023-02-02T07:12:10;4.20;99.90
20566;DHT22;10441;50.884;12.064;2023-02-02T07:14:40;4.20;99.90
20566;DHT22;10441;50.884;12.064;2023-02-02T07:17:09;4.20;99.90
20566;DHT22;10441;50.884;12.064;2023-02-02T07:19:37;4.30;99.90
20566;DHT22;10441;50.884;12.064;2023-02-02T07:22:05;4.20;99.90
20566;DHT22;10441;50.884;12.064;2023-02-02T07:24:33;4.20;99.90
20566;DHT22;10441;50.884;12.064;2023-02-02T07:27:01;4.30;99.90
20566;DHT22;10441;50.884;12.064;2023-02-02T07:29:29;4.20;99.90
20566;DHT22;10441;50.884;12.064;2023-02-02T07:31:58;4.40;99.90
20566;DHT22;10441;50.884;12.064;2023-02-02T07:34:25;4.30;99.90
20566;DHT22;10441;50.884;12.064;2023-02-02T07:36:53;4.40;99.90
20566;DHT22;10441;50.884;12.064;2023-02-02T07:39:27;4.40;99.90
20566;DHT22;10441;50.884;12.064;2023-02-02T07:41:55;4.40;99.90
20566;DHT22;10441;50.884;12.064;2023-02-02T07:44:24;4.50;99.90
20566;DHT22;10441;50.884;12.064;2023-02-02T07:46:51;4.50;99.90
20566;DHT22;10441;50.884;12.064;2023-02-02T07:49:19;4.50;99.90
20566;DHT22;10441;50.884;12.064;2023-02-02T07:51:47;4.50;99.90
20566;DHT22;10441;50.884;12.064;2023-02-02T07:54:14;4.50;99.90
20566;DHT22;10441;50.884;12.064;2023-02-02T07:56:44;4.50;99.90
20566;DHT22;10441;50.884;12.064;2023-02-02T07:59:12;4.60;99.90
20566;DHT22;10441;50.884;12.064;2023-02-02T08:01:40;4.70;99.90
20566;DHT22;10441;50.884;12.064;2023-02-02T08:04:11;4.70;99.90
20566;DHT22;10441;50.884;12.064;2023-02-02T08:06:39;4.80;99.90
20566;DHT22;10441;50.884;12.064;2023-02-02T08:09:07;4.90;99.90
20566;DHT22;10441;50.884;12.064;2023-02-02T08:11:36;4.80;99.90
20566;DHT22;10441;50.884;12.064;2023-02-02T08:14:05;4.90;99.90
20566;DHT22;10441;50.884;12.064;2023-02-02T08:16:34;4.90;99.90
20566;DHT22;10441;50.884;12.064;2023-02-02T08:19:02;4.90;99.90
20566;DHT22;10441;50.884;12.064;2023-02-02T08:21:33;5.00;99.90
20566;DHT22;10441;50.884;12.064;2023-02-02T08:24:01;5.00;99.90
20566;DHT22;10441;50.884;12.064;2023-02-02T08:26:31;5.00;99.90
20566;DHT22;10441;50.884;12.064;2023-02-02T08:29:00;5.10;99.90
20566;DHT22;10441;50.884;12.064;2023-02-02T08:31:29;5.10;99.90
20566;DHT22;10441;50.884;12.064;2023-02-02T08:33:57;5.10;99.90
20566;DHT22;10441;50.884;12.064;2023-02-02T08:36:26;5.20;99.90
20566;DHT22;10441;50.884;12.064;2023-02-02T08:38:54;5.20;99.90
20566;DHT22;10441;50.884;12.064;2023-02-02T08:41:23;5.10;99.90
20566;DHT22;10441;50.884;12.064;2023-02-02T08:43:51;5.10;99.90
20566;DHT22;10441;50.884;12.064;2023-02-02T08:46:19;5.20;99.90
20566;DHT22;10441;50.884;12.064;2023-02-02T08:48:49;5.20;99.90
20566;DHT22;10441;50.884;12.064;2023-02-02T08:51:17;5.30;99.90
20566;DHT22;10441;50.884;12.064;2023-02-02T08:53:46;5.30;99.90
20566;DHT22;10441;50.884;12.064;2023-02-02T08:56:15;5.30;99.90
20566;DHT22;10441;50.884;12.064;2023-02-02T08:58:43;5.30;99.90
20566;DHT22;10441;50.884;12.064;2023-02-02T09:01:11;5.40;99.90
20566;DHT22;10441;50.884;12.064;2023-02-02T09:03:40;5.40;99.90
20566;DHT22;10441;50.884;12.064;2023-02-02T09:06:17;5.40;99.90
20566;DHT22;10441;50.884;12.064;2023-02-02T09:08:45;5.40;99.90
20566;DHT22;10441;50.884;12.064;2023-02-02T09:11:14;5.50;99.90
20566;DHT22;10441;50.884;12.064;2023-02-02T09:13:43;5.50;99.90
20566;DHT22;10441;50.884;12.064;2023-02-02T09:16:13;5.60;99.90
20566;DHT22;10441;50.884;12.064;2023-02-02T09:18:40;5.50;99.90
20566;DHT22;10441;50.884;12.064;2023-02-02T09:21:09;5.60;99.90
20566;DHT22;10441;50.884;12.064;2023-02-02T09:23:42;5.60;99.90
20566;DHT22;10441;50.884;12.064;2023-02-02T09:26:11;5.70;99.90
20566;DHT22;10441;50.884;12.064;2023-02-02T09:28:39;5.80;99.90
20566;DHT22;10441;50.884;12.064;2023-02-02T09:31:09;5.70;99.90
20566;DHT22;10441;50.884;12.064;2023-02-02T09:33:40;5.70;99.90
20566;DHT22;10441;50.884;12.064;2023-02-02T09:36:10;5.80;99.90
20566;DHT22;10441;50.884;12.064;2023-02-02T09:38:42;5.80;99.90
20566;DHT22;10441;50.884;12.064;2023-02-02T09:41:26;6.00;99.90
20566;DHT22;10441;50.884;12.064;2023-02-02T09:44:00;6.00;99.90
20566;DHT22;10441;50.884;12.064;2023-02-02T09:46:33;5.90;99.90
20566;DHT22;10441;50.884;12.064;2023-02-02T09:49:06;5.80;99.90
20566;DHT22;10441;50.884;12.064;2023-02-02T09:51:38;6.10;99.90
20566;DHT22;10441;50.884;12.064;2023-02-02T09:54:14;6.10;99.90
20566;DHT22;10441;50.884;12.064;2023-02-02T09:56:43;6.10;99.90
20566;DHT22;10441;50.884;12.064;2023-02-02T09:59:14;6.20;99.90
20566;DHT22;10441;50.884;12.064;2023-02-02T10:01:44;5.90;99.90
20566;DHT22;10441;50.884;12.064;2023-02-02T10:04:13;5.80;99.90
20566;DHT22;10441;50.884;12.064;2023-02-02T10:06:44;5.90;99.90
20566;DHT22;10441;50.884;12.064;2023-02-02T10:09:22;5.90;99.90
20566;DHT22;10441;50.884;12.064;2023-02-02T10:11:53;6.00;99.90
20566;DHT22;10441;50.884;12.064;2023-02-02T10:14:24;5.80;99.90
20566;DHT22;10441;50.884;12.064;2023-02-02T10:16:54;5.70;99.90
20566;DHT22;10441;50.884;12.064;2023-02-02T10:19:23;5.80;99.90
20566;DHT22;10441;50.884;12.064;2023-02-02T10:21:56;5.70;99.90
20566;DHT22;10441;50.884;12.064;2023-02-02T10:24:28;5.70;99.90
20566;DHT22;10441;50.884;12.064;2023-02-02T10:26:57;5.70;99.90
20566;DHT22;10441;50.884;12.064;2023-02-02T10:29:31;5.60;99.90
20566;DHT22;10441;50.884;12.064;2023-02-02T10:32:05;5.70;99.90
20566;DHT22;10441;50.884;12.064;2023-02-02T10:34:37;5.90;99.90
20566;DHT22;10441;50.884;12.064;2023-02-02T10:37:11;6.00;99.90
20566;DHT22;10441;50.884;12.064;2023-02-02T10:39:52;5.60;99.90
20566;DHT22;10441;50.884;12.064;2023-02-02T10:42:25;5.70;99.90
20566;DHT22;10441;50.884;12.064;2023-02-02T10:44:56;5.60;99.90
20566;DHT22;10441;50.884;12.064;2023-02-02T10:47:26;5.60;99.90
20566;DHT22;10441;50.884;12.064;2023-02-02T10:50:00;5.70;99.90
20566;DHT22;10441;50.884;12.064;2023-02-02T10:52:31;5.80;99.90
20566;DHT22;10441;50.884;12.064;2023-02-02T10:55:01;5.60;99.90
20566;DHT22;10441;50.884;12.064;2023-02-02T10:57:37;5.80;99.90
20566;DHT22;10441;50.884;12.064;2023-02-02T11:00:14;5.50;99.90
20566;DHT22;10441;50.884;12.064;2023-02-02T11:02:45;5.70;99.90
20566;DHT22;10441;50.884;12.064;2023-02-02T11:05:15;5.70;99.90
20566;DHT22;10441;50.884;12.064;2023-02-02T11:08:07;5.60;99.90
20566;DHT22;10441;50.884;12.064;2023-02-02T11:10:45;5.50;99.90
20566;DHT22;10441;50.884;12.064;2023-02-02T11:13:26;5.60;99.90
20566;DHT22;10441;50.884;12.064;2023-02-02T11:18:38;5.50;99.90
20566;DHT22;10441;50.884;12.064;2023-02-02T11:21:13;5.80;99.90
20566;DHT22;10441;50.884;12.064;2023-02-02T11:23:49;5.50;99.90
20566;DHT22;10441;50.884;12.064;2023-02-02T11:26:19;5.40;99.90
20566;DHT22;10441;50.884;12.064;2023-02-02T11:28:47;5.50;99.90
20566;DHT22;10441;50.884;12.064;2023-02-02T11:34:14;5.70;99.90
20566;DHT22;10441;50.884;12.064;2023-02-02T11:39:26;5.60;99.90
20566;DHT22;10441;50.884;12.064;2023-02-02T11:42:07;5.80;99.90
20566;DHT22;10441;50.884;12.064;2023-02-02T11:44:35;5.80;99.90
20566;DHT22;10441;50.884;12.064;2023-02-02T11:47:05;5.70;99.90
20566;DHT22;10441;50.884;12.064;2023-02-02T11:49:36;5.80;99.90
20566;DHT22;10441;50.884;12.064;2023-02-02T11:52:05;5.90;99.90
20566;DHT22;10441;50.884;12.064;2023-02-02T11:54:40;6.10;99.90
20566;DHT22;10441;50.884;12.064;2023-02-02T11:57:16;6.00;99.90
20566;DHT22;10441;50.884;12.064;2023-02-02T11:59:45;5.60;99.90
20566;DHT22;10441;50.884;12.064;2023-02-02T12:02:25;5.70;99.90
20566;DHT22;10441;50.884;12.064;2023-02-02T12:07:40;6.00;99.90
20566;DHT22;10441;50.884;12.064;2023-02-02T12:10:15;5.90;99.90
20566;DHT22;10441;50.884;12.064;2023-02-02T12:12:50;5.70;99.90
20566;DHT22;10441;50.884;12.064;2023-02-02T12:15:22;6.00;99.90
20566;DHT22;10441;50.884;12.064;2023-02-02T12:17:52;5.60;99.90
20566;DHT22;10441;50.884;12.064;2023-02-02T12:20:25;5.80;99.90
20566;DHT22;10441;50.884;12.064;2023-02-02T12:23:13;5.50;99.90
20566;DHT22;10441;50.884;12.064;2023-02-02T12:25:49;5.60;99.90
20566;DHT22;10441;50.884;12.064;2023-02-02T12:28:27;5.60;99.90
20566;DHT22;10441;50.884;12.064;2023-02-02T12:31:01;5.70;99.90
20566;DHT22;10441;50.884;12.064;2023-02-02T12:33:38;5.50;99.90
20566;DHT22;10441;50.884;12.064;2023-02-02T12:36:20;5.50;99.90
20566;DHT22;10441;50.884;12.064;2023-02-02T12:38:57;5.70;99.90
20566;DHT22;10441;50.884;12.064;2023-02-02T12:41:30;5.60;99.90
20566;DHT22;10441;50.884;12.064;2023-02-02T12:44:06;5.60;99.90
20566;DHT22;10441;50.884;12.064;2023-02-02T12:46:41;5.40;99.90
20566;DHT22;10441;50.884;12.064;2023-02-02T12:49:18;5.70;99.90
20566;DHT22;10441;50.884;12.064;2023-02-02T12:51:52;5.70;99.90
20566;DHT22;10441;50.884;12.064;2023-02-02T12:54:36;5.70;99.90
20566;DHT22;10441;50.884;12.064;2023-02-02T12:57:20;5.70;99.90
20566;DHT22;10441;50.884;12.064;2023-02-02T13:02:39;5.50;99.90
20566;DHT22;10441;50.884;12.064;2023-02-02T13:05:17;5.70;99.90
20566;DHT22;10441;50.884;12.064;2023-02-02T13:07:53;5.90;99.90
20566;DHT22;10441;50.884;12.064;2023-02-02T13:10:23;5.80;99.90
20566;DHT22;10441;50.884;12.064;2023-02-02T13:12:54;5.80;99.90
20566;DHT22;10441;50.884;12.064;2023-02-02T13:15:26;5.60;99.90
20566;DHT22;10441;50.884;12.064;2023-02-02T13:17:58;5.70;99.90
20566;DHT22;10441;50.884;12.064;2023-02-02T13:20:30;5.70;99.90
20566;DHT22;10441;50.884;12.064;2023-02-02T13:23:04;5.70;99.90
20566;DHT22;10441;50.884;12.064;2023-02-02T13:25:34;6.00;99.90
20566;DHT22;10441;50.884;12.064;2023-02-02T13:28:03;5.60;99.90
20566;DHT22;10441;50.884;12.064;2023-02-02T13:30:34;5.80;99.90
20566;DHT22;10441;50.884;12.064;2023-02-02T13:33:10;5.70;99.90
20566;DHT22;10441;50.884;12.064;2023-02-02T13:35:41;5.70;99.90
20566;DHT22;10441;50.884;12.064;2023-02-02T13:38:13;5.60;99.90
20566;DHT22;10441;50.884;12.064;2023-02-02T13:40:42;5.60;99.90
20566;DHT22;10441;50.884;12.064;2023-02-02T13:43:26;5.80;99.90
20566;DHT22;10441;50.884;12.064;2023-02-02T13:45:57;5.80;99.90
20566;DHT22;10441;50.884;12.064;2023-02-02T13:48:31;5.90;99.90
20566;DHT22;10441;50.884;12.064;2023-02-02T13:51:11;5.90;99.90
20566;DHT22;10441;50.884;12.064;2023-02-02T13:53:47;5.60;99.90
20566;DHT22;10441;50.884;12.064;2023-02-02T13:56:32;5.60;99.90
20566;DHT22;10441;50.884;12.064;2023-02-02T13:59:06;5.40;99.90
20566;DHT22;10441;50.884;12.064;2023-02-02T14:01:45;5.40;99.90
20566;DHT22;10441;50.884;12.064;2023-02-02T14:04:21;5.50;99.90
20566;DHT22;10441;50.884;12.064;2023-02-02T14:06:54;5.60;99.90
20566;DHT22;10441;50.884;12.064;2023-02-02T14:09:25;5.50;99.90
20566;DHT22;10441;50.884;12.064;2023-02-02T14:11:56;5.50;99.90
20566;DHT22;10441;50.884;12.064;2023-02-02T14:14:24;5.40;99.90
20566;DHT22;10441;50.884;12.064;2023-02-02T14:16:57;5.30;99.90
20566;DHT22;10441;50.884;12.064;2023-02-02T14:22:34;5.40;99.90
20566;DHT22;10441;50.884;12.064;2023-02-02T14:27:54;5.30;99.90
20566;DHT22;10441;50.884;12.064;2023-02-02T14:30:30;5.30;99.90
20566;DHT22;10441;50.884;12.064;2023-02-02T14:38:40;5.10;99.90
20566;DHT22;10441;50.884;12.064;2023-02-02T14:41:13;5.20;99.90
20566;DHT22;10441;50.884;12.064;2023-02-02T14:44:04;5.20;99.90
20566;DHT22;10441;50.884;12.064;2023-02-02T14:46:33;5.00;99.90
20566;DHT22;10441;50.884;12.064;2023-02-02T14:51:53;4.80;99.90
20566;DHT22;10441;50.884;12.064;2023-02-02T14:54:29;4.70;99.90
20566;DHT22;10441;50.884;12.064;2023-02-02T14:56:59;4.70;99.90
20566;DHT22;10441;50.884;12.064;2023-02-02T14:59:30;4.70;99.90
20566;DHT22;10441;50.884;12.064;2023-02-02T15:02:00;4.70;99.90
20566;DHT22;10441;50.884;12.064;2023-02-02T15:04:29;4.60;99.90
20566;DHT22;10441;50.884;12.064;2023-02-02T15:07:34;4.60;99.90
20566;DHT22;10441;50.884;12.064;2023-02-02T15:09:48;4.60;99.90
20566;DHT22;10441;50.884;12.064;2023-02-02T15:12:26;4.60;99.90
20566;DHT22;10441;50.884;12.064;2023-02-02T15:15:19;4.80;99.90
20566;DHT22;10441;50.884;12.064;2023-02-02T15:17:59;4.60;99.90
20566;DHT22;10441;50.884;12.064;2023-02-02T15:20:30;4.70;99.90
20566;DHT22;10441;50.884;12.064;2023-02-02T15:23:01;4.60;99.90
20566;DHT22;10441;50.884;12.064;2023-02-02T15:25:39;4.50;99.90
20566;DHT22;10441;50.884;12.064;2023-02-02T15:28:12;4.50;99.90
20566;DHT22;10441;50.884;12.064;2023-02-02T15:30:46;4.50;99.90
20566;DHT22;10441;50.884;12.064;2023-02-02T15:33:20;4.30;99.90
20566;DHT22;10441;50.884;12.064;2023-02-02T15:35:50;4.20;99.90
20566;DHT22;10441;50.884;12.064;2023-02-02T15:38:19;4.20;99.90
20566;DHT22;10441;50.884;12.064;2023-02-02T15:40:49;4.20;99.90
20566;DHT22;10441;50.884;12.064;2023-02-02T15:43:18;4.10;99.90
20566;DHT22;10441;50.884;12.064;2023-02-02T15:45:46;4.20;99.90
20566;DHT22;10441;50.884;12.064;2023-02-02T15:48:22;4.20;99.90
20566;DHT22;10441;50.884;12.064;2023-02-02T15:50:51;4.20;99.90
20566;DHT22;10441;50.884;12.064;2023-02-02T15:53:22;4.20;99.90
20566;DHT22;10441;50.884;12.064;2023-02-02T15:55:52;4.20;99.90
20566;DHT22;10441;50.884;12.064;2023-02-02T15:58:25;4.20;99.90
20566;DHT22;10441;50.884;12.064;2023-02-02T16:00:58;4.20;99.90
20566;DHT22;10441;50.884;12.064;2023-02-02T16:03:30;4.20;99.90
20566;DHT22;10441;50.884;12.064;2023-02-02T16:05:59;4.10;99.90
20566;DHT22;10441;50.884;12.064;2023-02-02T16:08:28;4.10;99.90
20566;DHT22;10441;50.884;12.064;2023-02-02T16:11:08;4.10;99.90
20566;DHT22;10441;50.884;12.064;2023-02-02T16:13:36;4.10;99.90
20566;DHT22;10441;50.884;12.064;2023-02-02T16:16:18;4.10;99.90
20566;DHT22;10441;50.884;12.064;2023-02-02T16:18:47;4.10;99.90
20566;DHT22;10441;50.884;12.064;2023-02-02T16:21:26;4.10;99.90
20566;DHT22;10441;50.884;12.064;2023-02-02T16:23:55;4.10;99.90
20566;DHT22;10441;50.884;12.064;2023-02-02T16:26:26;4.00;99.90
20566;DHT22;10441;50.884;12.064;2023-02-02T16:28:55;4.10;99.90
20566;DHT22;10441;50.884;12.064;2023-02-02T16:31:23;4.10;99.90